Time;durP1;ratioP1;P1;durP2;ratioP2;P2;SDS_P1;SDS_P2;PMS_P1;PMS_P2;Temp;Humidity;BMP_temperature;BMP_pressure;BME280_temperature;BME280_humidity;BME280_pressure;Samples;Min_cycle;Max_cycle;Signal;HPM_P1;HPM_P2
2021/05/09 00:00:42;;;;;;;6.18;4.03;;;8.40;99.90;;;;;;6271828;28;20064;-75
2021/05/09 00:03:45;;;;;;;6.20;3.92;;;8.40;99.90;;;;;;6273027;28;20076;-75
2021/05/09 00:06:46;;;;;;;4.78;4.38;;;8.40;99.90;;;;;;6272403;28;20159;-75
2021/05/09 00:09:47;;;;;;;5.25;4.85;;;8.40;99.90;;;;;;6271795;28;20710;-75
2021/05/09 00:12:49;;;;;;;6.65;4.93;;;8.40;99.90;;;;;;6272079;28;20515;-75
2021/05/09 00:15:51;;;;;;;7.13;4.28;;;8.50;99.90;;;;;;6270373;28;20052;-75
2021/05/09 00:18:53;;;;;;;5.82;4.93;;;8.50;99.90;;;;;;6270349;28;20055;-76
2021/05/09 00:21:55;;;;;;;4.55;4.10;;;8.50;99.90;;;;;;6268347;28;20118;-75
2021/05/09 00:24:56;;;;;;;7.50;4.90;;;8.50;99.90;;;;;;6271681;28;20059;-75
2021/05/09 00:27:57;;;;;;;5.13;4.60;;;8.50;99.90;;;;;;6271839;28;20792;-75
2021/05/09 00:30:59;;;;;;;4.90;4.40;;;8.50;99.90;;;;;;6271570;28;20071;-75
2021/05/09 00:34:01;;;;;;;4.38;3.97;;;8.50;99.90;;;;;;6271777;28;20052;-75
2021/05/09 00:37:02;;;;;;;6.32;4.05;;;8.50;99.90;;;;;;6271812;28;20124;-75
2021/05/09 00:40:04;;;;;;;7.75;5.07;;;8.50;99.90;;;;;;6271495;28;20088;-75
2021/05/09 00:43:05;;;;;;;5.72;3.95;;;8.50;99.90;;;;;;6271969;28;20158;-75
2021/05/09 00:46:07;;;;;;;6.80;4.72;;;8.40;99.90;;;;;;6271399;28;20735;-75
2021/05/09 00:49:09;;;;;;;4.43;3.95;;;8.40;99.90;;;;;;6271257;28;20041;-75
2021/05/09 00:52:12;;;;;;;4.95;4.25;;;8.50;99.90;;;;;;6271382;28;20112;-75
2021/05/09 00:55:14;;;;;;;4.28;3.88;;;8.50;99.90;;;;;;6271767;28;20731;-75
2021/05/09 00:58:18;;;;;;;4.53;4.13;;;8.50;99.90;;;;;;6271234;28;20159;-75
2021/05/09 01:01:20;;;;;;;5.10;4.35;;;8.50;99.90;;;;;;6270939;28;20049;-75
2021/05/09 01:04:23;;;;;;;5.57;4.50;;;8.50;99.90;;;;;;6271274;28;20155;-75
2021/05/09 01:07:24;;;;;;;5.72;5.13;;;8.50;99.90;;;;;;6271554;28;20044;-75
2021/05/09 01:10:26;;;;;;;4.43;4.03;;;8.40;99.90;;;;;;6270521;28;20498;-75
2021/05/09 01:13:27;;;;;;;5.18;4.00;;;8.40;99.90;;;;;;6270897;28;20055;-75
2021/05/09 01:16:28;;;;;;;6.63;4.93;;;8.40;99.90;;;;;;6270197;28;20537;-75
2021/05/09 01:19:30;;;;;;;7.50;4.68;;;8.50;99.90;;;;;;6270007;28;20136;-75
2021/05/09 01:22:33;;;;;;;5.03;4.55;;;8.50;99.90;;;;;;6270744;28;20048;-75
2021/05/09 01:25:34;;;;;;;5.85;4.80;;;8.50;99.90;;;;;;6270442;28;20080;-75
2021/05/09 01:28:36;;;;;;;5.38;4.65;;;8.50;99.90;;;;;;6270368;28;20582;-75
2021/05/09 01:31:37;;;;;;;4.80;4.03;;;8.50;99.90;;;;;;6270490;28;20557;-75
2021/05/09 01:34:38;;;;;;;4.35;4.00;;;8.60;99.90;;;;;;6270494;28;20132;-75
2021/05/09 01:37:40;;;;;;;6.53;4.70;;;8.60;99.90;;;;;;6270379;28;20132;-75
2021/05/09 01:40:42;;;;;;;4.78;4.18;;;8.60;99.90;;;;;;6270248;28;20049;-75
2021/05/09 01:43:43;;;;;;;5.38;4.65;;;8.60;99.90;;;;;;6270332;28;20080;-75
2021/05/09 01:46:44;;;;;;;5.53;4.95;;;8.70;99.90;;;;;;6270256;28;20049;-75
2021/05/09 01:49:46;;;;;;;4.88;4.45;;;8.70;99.90;;;;;;6270262;28;20062;-75
2021/05/09 01:52:48;;;;;;;4.90;4.28;;;8.70;99.90;;;;;;6269953;28;20121;-75
2021/05/09 01:55:50;;;;;;;5.35;4.90;;;8.80;99.90;;;;;;6270194;28;20053;-75
2021/05/09 01:58:51;;;;;;;6.28;5.45;;;8.70;99.90;;;;;;6270232;28;20333;-75
2021/05/09 02:01:53;;;;;;;6.00;5.32;;;8.80;99.90;;;;;;6270178;28;20050;-75
2021/05/09 02:04:54;;;;;;;7.03;5.20;;;8.80;99.90;;;;;;6269917;28;20045;-75
2021/05/09 02:07:56;;;;;;;5.82;5.32;;;8.80;99.90;;;;;;6270317;28;20132;-75
2021/05/09 02:10:58;;;;;;;8.48;5.20;;;8.80;99.90;;;;;;6269909;28;20096;-75
2021/05/09 02:13:59;;;;;;;7.80;7.00;;;8.90;99.90;;;;;;6270073;28;20128;-75
2021/05/09 02:17:00;;;;;;;7.50;6.90;;;8.80;99.90;;;;;;6269582;28;20110;-75
2021/05/09 02:20:04;;;;;;;9.02;8.10;;;8.80;99.90;;;;;;6268907;28;20072;-75
2021/05/09 02:23:06;;;;;;;11.45;10.05;;;8.80;99.90;;;;;;6269892;28;20060;-75
2021/05/09 02:26:07;;;;;;;9.32;8.30;;;8.80;99.90;;;;;;6269873;28;20503;-75
2021/05/09 02:29:09;;;;;;;8.82;7.93;;;8.80;99.90;;;;;;6269627;28;20071;-75
2021/05/09 02:32:10;;;;;;;8.63;7.68;;;8.80;99.90;;;;;;6269243;28;20069;-75
2021/05/09 02:35:12;;;;;;;9.07;8.05;;;8.80;99.90;;;;;;6270557;28;20051;-75
2021/05/09 02:38:14;;;;;;;10.02;9.00;;;8.70;99.90;;;;;;6269494;28;20738;-75
2021/05/09 02:41:15;;;;;;;9.68;8.48;;;8.70;99.90;;;;;;6269587;28;20124;-75
2021/05/09 02:44:17;;;;;;;11.70;10.07;;;8.70;99.90;;;;;;6269447;28;20045;-75
2021/05/09 02:47:28;;;;;;;12.40;10.38;;;8.70;99.90;;;;;;6269953;28;20478;-75
2021/05/09 02:50:29;;;;;;;12.85;11.45;;;8.70;99.90;;;;;;6269003;28;20052;-75
2021/05/09 02:53:32;;;;;;;14.93;12.32;;;8.70;99.90;;;;;;6271643;28;20071;-75
2021/05/09 02:56:33;;;;;;;12.48;11.27;;;8.70;99.90;;;;;;6273860;28;20061;-75
2021/05/09 02:59:35;;;;;;;14.43;11.07;;;8.70;99.90;;;;;;6274460;28;20076;-75
2021/05/09 03:02:36;;;;;;;12.75;11.45;;;8.70;99.90;;;;;;6273941;28;20124;-75
2021/05/09 03:05:37;;;;;;;12.98;10.77;;;8.70;99.90;;;;;;6273687;28;20414;-75
2021/05/09 03:08:39;;;;;;;11.05;9.93;;;8.80;99.90;;;;;;6273605;28;20134;-75
2021/05/09 03:11:40;;;;;;;13.27;11.20;;;8.70;99.90;;;;;;6274026;28;20162;-75
2021/05/09 03:14:42;;;;;;;11.30;10.20;;;8.70;99.90;;;;;;6274057;28;20049;-75
2021/05/09 03:17:43;;;;;;;10.63;9.57;;;8.70;99.90;;;;;;6273739;28;20053;-75
2021/05/09 03:20:45;;;;;;;15.57;11.13;;;8.70;99.90;;;;;;6267165;28;20069;-75
2021/05/09 03:23:47;;;;;;;15.10;11.63;;;8.60;99.90;;;;;;6273455;28;20521;-75
2021/05/09 03:26:48;;;;;;;10.75;9.75;;;8.70;99.90;;;;;;6274414;28;20080;-76
2021/05/09 03:29:49;;;;;;;12.13;10.93;;;8.70;99.90;;;;;;6272862;28;20051;-75
2021/05/09 03:32:53;;;;;;;12.30;10.82;;;8.70;99.90;;;;;;6273427;28;20045;-76
2021/05/09 03:35:55;;;;;;;11.68;9.95;;;8.70;99.90;;;;;;6288339;22;20049;-74
2021/05/09 03:38:57;;;;;;;12.77;11.35;;;8.60;99.90;;;;;;6275178;28;20505;-75
2021/05/09 03:41:58;;;;;;;12.10;10.77;;;8.60;99.90;;;;;;6273894;28;20528;-75
2021/05/09 03:45:00;;;;;;;13.57;12.30;;;8.60;99.90;;;;;;6273495;28;20041;-75
2021/05/09 03:48:01;;;;;;;11.52;10.55;;;8.60;99.90;;;;;;6273798;28;20045;-75
2021/05/09 03:51:03;;;;;;;11.23;10.13;;;8.60;99.90;;;;;;6273876;28;20057;-75
2021/05/09 03:54:06;;;;;;;10.77;9.68;;;8.50;99.90;;;;;;6273407;28;20068;-75
2021/05/09 03:57:07;;;;;;;14.35;10.30;;;8.50;99.90;;;;;;6273489;28;20187;-75
2021/05/09 04:00:09;;;;;;;11.45;10.32;;;8.50;99.90;;;;;;6273089;28;20564;-75
2021/05/09 04:03:24;;;;;;;13.27;11.27;;;8.50;99.90;;;;;;6273681;28;20128;-75
2021/05/09 04:06:26;;;;;;;11.35;9.82;;;8.50;99.90;;;;;;6272765;28;20525;-75
2021/05/09 04:09:28;;;;;;;10.00;9.10;;;8.60;99.90;;;;;;6272565;28;20135;-75
2021/05/09 04:12:29;;;;;;;11.77;9.93;;;8.60;99.90;;;;;;6273661;28;20044;-75
2021/05/09 04:15:30;;;;;;;10.90;9.85;;;8.70;99.90;;;;;;6273322;28;20053;-75
2021/05/09 04:18:32;;;;;;;9.38;8.43;;;8.80;99.90;;;;;;6272670;28;20140;-75
2021/05/09 04:21:33;;;;;;;11.18;9.15;;;8.80;99.90;;;;;;6271033;28;20072;-75
2021/05/09 04:24:35;;;;;;;10.77;9.57;;;8.80;99.90;;;;;;6272641;28;20128;-75
2021/05/09 04:27:37;;;;;;;12.38;8.85;;;9.00;99.90;;;;;;6273251;28;20136;-75
2021/05/09 04:30:38;;;;;;;12.20;10.00;;;9.10;99.90;;;;;;6272253;28;20049;-74
2021/05/09 04:33:39;;;;;;;8.57;7.78;;;9.20;99.90;;;;;;6272265;28;20481;-75
2021/05/09 04:36:41;;;;;;;10.73;8.77;;;9.30;99.90;;;;;;6272403;28;20557;-75
2021/05/09 04:39:43;;;;;;;13.13;9.38;;;9.30;99.90;;;;;;6272640;28;20099;-75
2021/05/09 04:42:44;;;;;;;8.88;7.70;;;9.40;99.90;;;;;;6272309;28;20136;-75
2021/05/09 04:45:46;;;;;;;8.50;7.70;;;9.40;99.90;;;;;;6271941;28;20151;-75
2021/05/09 04:48:48;;;;;;;10.90;8.65;;;9.40;99.90;;;;;;6271718;28;20049;-75
2021/05/09 04:51:49;;;;;;;11.45;10.15;;;9.50;99.90;;;;;;6272387;28;20091;-75
2021/05/09 04:54:51;;;;;;;9.02;8.23;;;9.50;99.90;;;;;;6272532;28;20132;-75
2021/05/09 04:57:52;;;;;;;7.50;6.82;;;9.50;99.90;;;;;;6271741;28;20120;-75
2021/05/09 05:00:54;;;;;;;8.82;7.97;;;9.60;99.90;;;;;;6271300;28;20591;-75
2021/05/09 05:03:56;;;;;;;10.45;8.05;;;9.70;99.90;;;;;;6253976;28;20128;-75
2021/05/09 05:06:57;;;;;;;8.63;7.72;;;9.90;99.90;;;;;;6247543;28;20095;-76
2021/05/09 05:09:59;;;;;;;11.20;7.45;;;10.10;99.90;;;;;;6246419;28;20511;-74
2021/05/09 05:13:00;;;;;;;8.88;8.02;;;10.30;99.90;;;;;;6247040;28;20168;-74
2021/05/09 05:16:04;;;;;;;14.27;7.38;;;10.50;99.90;;;;;;6246277;28;20076;-75
2021/05/09 05:19:05;;;;;;;8.90;6.25;;;10.70;99.30;;;;;;6246657;28;20533;-74
2021/05/09 05:22:07;;;;;;;8.00;6.65;;;10.90;98.70;;;;;;6245145;28;20044;-74
2021/05/09 05:25:10;;;;;;;9.20;6.97;;;11.20;98.30;;;;;;6246314;28;20045;-75
2021/05/09 05:28:12;;;;;;;6.40;5.60;;;11.50;97.50;;;;;;6246308;28;20576;-74
2021/05/09 05:31:13;;;;;;;6.25;5.65;;;11.70;96.70;;;;;;6246713;28;20202;-75
2021/05/09 05:34:15;;;;;;;6.78;6.03;;;11.90;96.00;;;;;;6246271;28;20568;-75
2021/05/09 05:37:16;;;;;;;8.02;6.80;;;12.30;95.20;;;;;;6246272;28;20508;-74
2021/05/09 05:40:19;;;;;;;8.70;7.43;;;12.60;94.00;;;;;;6246049;28;20049;-74
2021/05/09 05:43:21;;;;;;;5.78;5.28;;;12.90;93.00;;;;;;6246732;28;20139;-76
2021/05/09 05:46:22;;;;;;;6.30;5.63;;;13.20;92.10;;;;;;6246087;28;20411;-74
2021/05/09 05:49:23;;;;;;;5.93;5.35;;;13.60;90.90;;;;;;6245995;28;20084;-76
2021/05/09 05:52:25;;;;;;;5.65;5.03;;;14.10;89.90;;;;;;6246394;28;20093;-75
2021/05/09 05:55:27;;;;;;;6.50;4.15;;;14.40;86.10;;;;;;6246463;28;20049;-75
2021/05/09 05:58:28;;;;;;;5.22;4.72;;;14.70;84.00;;;;;;6245656;28;20041;-76
2021/05/09 06:01:30;;;;;;;6.70;4.53;;;15.00;81.60;;;;;;6245838;28;20183;-76
2021/05/09 06:04:31;;;;;;;5.10;4.47;;;15.40;80.30;;;;;;6235165;28;20140;-76
2021/05/09 06:07:33;;;;;;;5.60;4.35;;;15.60;78.60;;;;;;6246437;28;20085;-76
2021/05/09 06:10:35;;;;;;;3.72;3.35;;;15.80;77.30;;;;;;6245254;28;20128;-76
2021/05/09 06:13:36;;;;;;;3.20;2.90;;;16.00;76.60;;;;;;6245715;28;20136;-75
2021/05/09 06:16:37;;;;;;;3.92;3.60;;;16.30;75.50;;;;;;6246040;28;20470;-76
2021/05/09 06:19:39;;;;;;;3.50;3.20;;;16.60;74.10;;;;;;6246703;28;20073;-75
2021/05/09 06:22:40;;;;;;;4.50;4.10;;;16.80;72.90;;;;;;6243501;28;20506;-74
2021/05/09 06:25:42;;;;;;;5.78;3.38;;;17.10;71.60;;;;;;6221182;28;20599;-73
2021/05/09 06:28:44;;;;;;;4.03;3.63;;;17.30;70.30;;;;;;6224425;28;20125;-76
2021/05/09 06:31:45;;;;;;;4.15;3.15;;;17.50;69.40;;;;;;6226895;28;20078;-74
2021/05/09 06:34:46;;;;;;;3.67;3.22;;;17.70;68.00;;;;;;6226366;28;20117;-74
2021/05/09 06:37:50;;;;;;;6.35;2.95;;;17.80;68.60;;;;;;6226064;28;20046;-74
2021/05/09 06:40:53;;;;;;;4.85;3.25;;;18.00;68.30;;;;;;6247771;28;20125;-74
2021/05/09 06:43:57;;;;;;;4.15;3.33;;;18.00;68.40;;;;;;6250056;28;20407;-74
2021/05/09 06:46:59;;;;;;;6.75;4.30;;;18.10;67.60;;;;;;6251202;28;20127;-74
2021/05/09 06:50:01;;;;;;;6.35;3.65;;;18.10;67.60;;;;;;6249717;28;20076;-74
2021/05/09 06:53:04;;;;;;;3.38;3.08;;;18.20;67.70;;;;;;6250539;28;20042;-74
2021/05/09 06:56:06;;;;;;;3.92;3.20;;;18.30;68.00;;;;;;6249784;28;20049;-75
2021/05/09 06:59:07;;;;;;;3.72;2.58;;;18.50;68.10;;;;;;6250509;28;20085;-75
2021/05/09 07:02:09;;;;;;;5.15;2.75;;;18.70;66.90;;;;;;6249864;28;20041;-74
2021/05/09 07:05:11;;;;;;;3.05;2.80;;;18.90;65.50;;;;;;6249527;28;20042;-73
2021/05/09 07:08:12;;;;;;;5.13;2.72;;;19.00;64.60;;;;;;6250154;28;20048;-74
2021/05/09 07:11:14;;;;;;;5.40;3.28;;;19.20;63.80;;;;;;6249627;28;20202;-75
2021/05/09 07:14:16;;;;;;;4.85;2.25;;;19.50;62.50;;;;;;6249830;28;20065;-74
2021/05/09 07:17:17;;;;;;;2.38;2.17;;;19.60;61.20;;;;;;6249557;28;20084;-74
2021/05/09 07:20:20;;;;;;;3.28;2.25;;;19.80;60.90;;;;;;6249942;28;20410;-75
2021/05/09 07:23:21;;;;;;;3.38;2.25;;;19.90;59.90;;;;;;6245999;28;20061;-74
2021/05/09 07:26:23;;;;;;;4.53;2.53;;;20.10;59.30;;;;;;6246906;28;20463;-75
2021/05/09 07:29:25;;;;;;;2.95;2.20;;;20.20;58.80;;;;;;6249213;28;20144;-75
2021/05/09 07:32:26;;;;;;;2.33;2.13;;;20.20;58.70;;;;;;6249796;28;20067;-76
2021/05/09 07:35:28;;;;;;;2.50;1.90;;;20.50;57.90;;;;;;6250064;28;20144;-75
2021/05/09 07:38:29;;;;;;;2.80;1.83;;;20.70;57.20;;;;;;6249291;28;20072;-75
2021/05/09 07:41:31;;;;;;;2.40;1.70;;;21.00;56.20;;;;;;6248066;28;20056;-74
2021/05/09 07:44:33;;;;;;;2.33;1.67;;;21.20;55.20;;;;;;6249799;28;20038;-74
2021/05/09 07:47:34;;;;;;;2.03;1.70;;;21.40;54.10;;;;;;6249913;28;20115;-75
2021/05/09 07:50:36;;;;;;;2.28;1.23;;;21.50;53.30;;;;;;6249000;28;20073;-74
2021/05/09 07:53:37;;;;;;;2.35;1.80;;;21.70;52.90;;;;;;6249000;28;20076;-74
2021/05/09 07:56:39;;;;;;;2.20;1.55;;;22.10;52.30;;;;;;6248521;28;20050;-74
2021/05/09 07:59:41;;;;;;;1.73;1.60;;;22.30;51.30;;;;;;6249121;28;20049;-73
2021/05/09 08:02:44;;;;;;;2.95;1.83;;;22.60;50.70;;;;;;6248943;28;20060;-74
2021/05/09 08:05:45;;;;;;;3.88;1.70;;;22.90;50.40;;;;;;6248608;28;20518;-75
2021/05/09 08:08:47;;;;;;;2.80;1.88;;;23.20;49.60;;;;;;6248310;28;20046;-75
2021/05/09 08:11:49;;;;;;;4.00;1.83;;;23.40;49.60;;;;;;6248931;28;20077;-74
2021/05/09 08:14:50;;;;;;;2.45;1.42;;;23.40;49.80;;;;;;6248385;28;20521;-74
2021/05/09 08:17:54;;;;;;;2.22;1.38;;;23.50;49.20;;;;;;6248378;28;20064;-75
2021/05/09 08:20:57;;;;;;;2.22;1.58;;;23.60;48.70;;;;;;6248180;28;20503;-76
2021/05/09 08:23:58;;;;;;;1.20;1.10;;;23.60;48.30;;;;;;6243805;28;20108;-75
2021/05/09 08:27:00;;;;;;;2.10;1.50;;;23.70;48.30;;;;;;6247671;28;20056;-74
2021/05/09 08:30:03;;;;;;;1.50;1.40;;;23.90;49.00;;;;;;6248010;28;20041;-75
2021/05/09 08:33:04;;;;;;;1.88;1.58;;;24.00;48.80;;;;;;6248584;28;20045;-75
2021/05/09 08:36:06;;;;;;;4.18;1.75;;;24.20;48.70;;;;;;6247717;28;20077;-74
2021/05/09 08:39:07;;;;;;;1.38;1.27;;;24.30;48.80;;;;;;6247893;28;20049;-75
2021/05/09 08:42:14;;;;;;;3.58;1.00;;;24.50;47.80;;;;;;6247483;28;20142;-75
2021/05/09 08:45:16;;;;;;;6.88;1.30;;;24.70;47.60;;;;;;6247343;28;20124;-75
2021/05/09 08:48:22;;;;;;;3.53;1.30;;;24.80;47.40;;;;;;6247108;28;20519;-75
2021/05/09 08:51:24;;;;;;;2.30;1.63;;;24.90;46.20;;;;;;6247244;28;20104;-75
2021/05/09 08:54:26;;;;;;;3.22;1.33;;;25.00;46.00;;;;;;6247262;28;20048;-74
2021/05/09 08:57:28;;;;;;;2.38;1.45;;;25.10;45.20;;;;;;6247101;28;20081;-74
2021/05/09 09:00:29;;;;;;;1.63;1.42;;;25.10;45.70;;;;;;6246698;28;20538;-74
2021/05/09 09:03:33;;;;;;;1.55;1.45;;;25.10;45.60;;;;;;6247385;28;20060;-74
2021/05/09 09:06:42;;;;;;;4.20;1.73;;;25.20;45.20;;;;;;6247076;28;20073;-75
2021/05/09 09:09:44;;;;;;;1.77;1.45;;;25.20;45.10;;;;;;6246609;28;20069;-75
2021/05/09 09:12:46;;;;;;;3.95;1.25;;;25.20;44.60;;;;;;6247260;28;20705;-75
2021/05/09 09:15:50;;;;;;;1.38;1.27;;;25.10;45.90;;;;;;6246745;28;20136;-74
2021/05/09 09:18:52;;;;;;;3.58;1.40;;;25.00;44.80;;;;;;6247174;28;20183;-74
2021/05/09 09:21:55;;;;;;;4.82;1.73;;;24.90;45.40;;;;;;6246558;28;20113;-74
2021/05/09 09:25:05;;;;;;;5.05;1.48;;;24.90;45.00;;;;;;6242459;28;20049;-75
2021/05/09 09:28:18;;;;;;;1.40;1.30;;;25.20;45.30;;;;;;6245605;28;20060;-74
2021/05/09 09:31:39;;;;;;;5.65;2.05;;;25.50;44.80;;;;;;6247087;28;20162;-75
2021/05/09 09:34:43;;;;;;;2.83;2.40;;;25.90;45.20;;;;;;6258437;23;20029;-77
2021/05/09 09:37:44;;;;;;;3.90;2.10;;;26.00;43.70;;;;;;6228301;28;20046;-77
2021/05/09 09:41:06;;;;;;;3.33;1.45;;;26.10;43.70;;;;;;6227548;28;20548;-78
2021/05/09 09:44:10;;;;;;;2.22;1.50;;;26.20;43.20;;;;;;6226861;28;20574;-77
2021/05/09 09:47:12;;;;;;;1.40;1.17;;;26.10;43.40;;;;;;6227626;28;20057;-77
2021/05/09 09:50:33;;;;;;;6.90;1.30;;;26.10;43.30;;;;;;6228035;28;20582;-77
2021/05/09 09:53:37;;;;;;;1.85;1.35;;;26.40;43.30;;;;;;6225971;28;20515;-76
2021/05/09 09:56:42;;;;;;;1.23;0.98;;;26.80;42.60;;;;;;6226467;28;20053;-78
2021/05/09 09:59:45;;;;;;;2.08;1.52;;;27.20;42.10;;;;;;6227060;28;20132;-77
2021/05/09 10:02:46;;;;;;;1.95;1.42;;;27.80;41.70;;;;;;6228092;28;20049;-78
2021/05/09 10:05:48;;;;;;;1.70;1.52;;;28.20;40.30;;;;;;6234372;28;20073;-77
2021/05/09 10:08:51;;;;;;;2.55;1.98;;;28.40;41.00;;;;;;6232601;28;20057;-78
2021/05/09 10:11:54;;;;;;;3.38;2.22;;;28.60;39.90;;;;;;6231697;28;20145;-77
2021/05/09 10:14:57;;;;;;;3.60;1.55;;;28.80;39.90;;;;;;6231701;28;20057;-78
2021/05/09 10:17:58;;;;;;;3.70;1.90;;;28.80;41.30;;;;;;6231940;28;20482;-78
2021/05/09 10:21:00;;;;;;;6.40;3.78;;;29.00;39.90;;;;;;6231647;28;20129;-78
2021/05/09 10:24:08;;;;;;;4.57;3.97;;;29.20;40.00;;;;;;6231880;28;20145;-78
2021/05/09 10:27:11;;;;;;;2.65;2.08;;;29.50;39.60;;;;;;6228400;28;20133;-79
2021/05/09 10:30:14;;;;;;;7.30;5.72;;;29.70;38.10;;;;;;6230875;28;20050;-79
2021/05/09 10:33:46;;;;;;;4.70;3.75;;;29.90;37.60;;;;;;6231131;28;20105;-78
2021/05/09 10:36:47;;;;;;;4.40;1.83;;;30.20;36.70;;;;;;6185613;28;20054;-78
2021/05/09 10:40:19;;;;;;;2.03;1.50;;;30.30;37.10;;;;;;6231134;28;20046;-78
2021/05/09 10:43:31;;;;;;;7.45;5.90;;;30.70;37.20;;;;;;6231365;28;20054;-78
2021/05/09 10:47:04;;;;;;;3.03;1.38;;;30.90;37.20;;;;;;6230606;28;20046;-77
2021/05/09 10:50:29;;;;;;;1.73;1.15;;;30.80;37.30;;;;;;6231775;28;20129;-78
2021/05/09 10:53:40;;;;;;;2.90;1.90;;;31.00;36.90;;;;;;6230861;28;20041;-79
2021/05/09 10:56:41;;;;;;;4.35;3.67;;;31.20;35.70;;;;;;6229269;28;20593;-79
2021/05/09 10:59:58;;;;;;;2.65;1.35;;;31.30;34.60;;;;;;6230389;28;20050;-77
2021/05/09 11:03:01;;;;;;;3.70;1.25;;;31.50;35.20;;;;;;6228830;28;20179;-79
2021/05/09 11:06:03;;;;;;;5.90;3.28;;;31.60;34.00;;;;;;6231206;28;20072;-74
2021/05/09 11:09:05;;;;;;;8.25;7.30;;;31.70;33.30;;;;;;6229478;28;20568;-76
2021/05/09 11:12:07;;;;;;;1.05;0.95;;;31.80;33.40;;;;;;6226511;28;20081;-76
2021/05/09 11:15:13;;;;;;;2.30;1.25;;;31.80;31.40;;;;;;6226529;28;20046;-76
2021/05/09 11:18:16;;;;;;;1.92;1.52;;;31.80;32.60;;;;;;6225173;28;20042;-76
2021/05/09 11:21:20;;;;;;;8.45;2.97;;;31.90;32.40;;;;;;6224091;28;20074;-76
2021/05/09 11:24:24;;;;;;;3.67;2.55;;;32.10;32.40;;;;;;6225049;28;20463;-75
2021/05/09 11:27:26;;;;;;;3.90;1.02;;;32.40;32.90;;;;;;6223782;28;20128;-75
2021/05/09 11:30:34;;;;;;;3.35;0.70;;;32.60;31.60;;;;;;6222437;28;20070;-75
2021/05/09 11:33:53;;;;;;;3.50;1.80;;;32.70;32.10;;;;;;6225636;28;20586;-76
2021/05/09 11:36:57;;;;;;;6.80;1.80;;;32.60;32.10;;;;;;6225107;28;20120;-76
2021/05/09 11:40:05;;;;;;;2.30;1.50;;;32.60;31.30;;;;;;6224545;28;20065;-77
2021/05/09 11:43:11;;;;;;;4.80;1.35;;;32.60;31.00;;;;;;6225234;28;20415;-77
2021/05/09 11:46:16;;;;;;;0.80;0.70;;;32.50;30.20;;;;;;6224558;28;20068;-76
2021/05/09 11:49:20;;;;;;;3.95;1.10;;;32.60;30.00;;;;;;6225483;28;20571;-74
2021/05/09 11:52:23;;;;;;;4.13;1.20;;;32.70;30.40;;;;;;6224933;28;20041;-77
2021/05/09 11:55:25;;;;;;;4.88;1.92;;;32.70;29.50;;;;;;6225163;28;20057;-74
2021/05/09 11:58:26;;;;;;;2.20;0.90;;;32.80;29.30;;;;;;6224129;28;20072;-75
2021/05/09 12:01:34;;;;;;;0.75;0.73;;;33.00;29.20;;;;;;6224281;28;20060;-75
2021/05/09 12:04:36;;;;;;;1.33;1.17;;;32.90;29.20;;;;;;6223830;28;20475;-76
2021/05/09 12:07:44;;;;;;;1.88;0.93;;;32.70;29.10;;;;;;6224460;28;20050;-77
2021/05/09 12:10:45;;;;;;;;;;;32.60;29.40;;;;;;6224311;28;20100;-75
2021/05/09 12:13:46;;;;;;;1.17;1.08;;;32.50;29.90;;;;;;6223780;28;19961;-77
2021/05/09 12:16:48;;;;;;;3.67;1.23;;;32.60;30.40;;;;;;6224012;28;20072;-77
2021/05/09 12:19:51;;;;;;;1.55;0.90;;;33.00;30.10;;;;;;6223192;28;20245;-76
2021/05/09 12:22:53;;;;;;;3.30;0.90;;;33.10;28.70;;;;;;6224222;28;20049;-76
2021/05/09 12:25:54;;;;;;;1.13;0.80;;;32.90;28.20;;;;;;6222710;28;20050;-76
2021/05/09 12:29:16;;;;;;;1.20;0.60;;;32.80;28.30;;;;;;6216335;28;20120;-75
2021/05/09 12:32:20;;;;;;;2.75;0.90;;;32.50;28.20;;;;;;6223295;28;20392;-75
2021/05/09 12:35:22;;;;;;;2.33;1.00;;;32.10;28.70;;;;;;6223843;28;20053;-77
2021/05/09 12:38:25;;;;;;;0.85;0.70;;;31.80;28.70;;;;;;6223137;28;20072;-76
2021/05/09 12:41:26;;;;;;;1.20;1.05;;;31.60;28.90;;;;;;6223131;28;20092;-74
2021/05/09 12:44:28;;;;;;;1.55;0.60;;;31.60;29.50;;;;;;6222920;28;20559;-76
2021/05/09 12:47:29;;;;;;;3.03;0.80;;;31.70;29.40;;;;;;6224135;28;20530;-76
2021/05/09 12:50:49;;;;;;;3.92;0.93;;;31.70;29.20;;;;;;6222585;28;20046;-75
2021/05/09 12:53:51;;;;;;;2.33;1.27;;;31.70;28.50;;;;;;6223156;28;20172;-74
2021/05/09 12:56:53;;;;;;;1.90;1.00;;;31.50;28.80;;;;;;6222669;28;20046;-74
2021/05/09 12:59:56;;;;;;;2.22;0.77;;;31.30;28.70;;;;;;6222511;28;20511;-76
2021/05/09 13:02:57;;;;;;;0.88;0.55;;;31.20;29.10;;;;;;6223220;28;20054;-77
2021/05/09 13:06:00;;;;;;;1.67;1.33;;;31.20;29.40;;;;;;6224577;28;20076;-76
2021/05/09 13:09:01;;;;;;;4.50;1.42;;;31.10;29.70;;;;;;6223291;28;20042;-77
2021/05/09 13:12:03;;;;;;;2.60;1.00;;;31.10;29.80;;;;;;6223581;28;20513;-77
2021/05/09 13:15:10;;;;;;;1.55;0.95;;;31.00;30.00;;;;;;6224034;28;20115;-77
2021/05/09 13:18:11;;;;;;;1.53;0.97;;;31.10;30.30;;;;;;6222386;28;20125;-77
2021/05/09 13:21:14;;;;;;;2.25;0.95;;;31.30;30.40;;;;;;6222513;28;20129;-77
2021/05/09 13:24:15;;;;;;;1.10;0.82;;;31.30;30.30;;;;;;6222422;28;20073;-78
2021/05/09 13:27:17;;;;;;;4.93;1.38;;;31.40;30.50;;;;;;6225542;28;20115;-76
2021/05/09 13:30:20;;;;;;;1.05;0.60;;;31.40;30.90;;;;;;6216935;28;20129;-77
2021/05/09 13:33:21;;;;;;;2.65;1.08;;;31.50;30.10;;;;;;6225622;28;20511;-77
2021/05/09 13:36:24;;;;;;;2.20;0.80;;;31.70;30.90;;;;;;6224231;28;20073;-77
2021/05/09 13:39:25;;;;;;;1.85;0.98;;;32.00;30.60;;;;;;6224450;28;20060;-77
2021/05/09 13:42:27;;;;;;;1.55;1.15;;;;;;;;;;6225497;28;20065;-77
2021/05/09 13:45:30;;;;;;;2.95;0.90;;;32.70;29.50;;;;;;6223508;28;20160;-77
2021/05/09 13:48:31;;;;;;;4.28;0.90;;;32.90;28.80;;;;;;6223874;28;20442;-76
2021/05/09 13:51:33;;;;;;;3.85;0.93;;;33.00;28.70;;;;;;6225083;28;20085;-77
2021/05/09 13:54:36;;;;;;;2.75;1.17;;;33.20;29.20;;;;;;6223398;28;20623;-77
2021/05/09 13:57:38;;;;;;;5.00;2.15;;;33.30;29.20;;;;;;6222096;28;20055;-76
2021/05/09 14:00:39;;;;;;;3.05;0.73;;;33.30;28.80;;;;;;6222817;28;20072;-77
2021/05/09 14:03:40;;;;;;;1.27;0.80;;;33.20;28.40;;;;;;6224510;28;20137;-77
2021/05/09 14:06:43;;;;;;;0.93;0.80;;;33.20;28.80;;;;;;6225282;28;20101;-77
2021/05/09 14:09:45;;;;;;;1.25;0.63;;;33.40;28.60;;;;;;6225835;28;20057;-76
2021/05/09 14:12:48;;;;;;;0.93;0.65;;;;;;;;;;6225641;28;20045;-77
2021/05/09 14:15:50;;;;;;;4.50;0.95;;;33.60;27.90;;;;;;6225715;28;20141;-77
2021/05/09 14:18:52;;;;;;;2.28;0.82;;;33.60;28.50;;;;;;6225524;28;20423;-79
2021/05/09 14:21:54;;;;;;;1.60;1.08;;;33.50;28.70;;;;;;6225795;28;20066;-78
2021/05/09 14:24:57;;;;;;;1.55;0.63;;;33.30;28.40;;;;;;6224825;28;20045;-78
2021/05/09 14:27:58;;;;;;;4.40;1.10;;;33.30;28.70;;;;;;6225489;28;20108;-79
2021/05/09 14:31:00;;;;;;;1.45;0.75;;;33.20;28.50;;;;;;6223630;28;20093;-78
2021/05/09 14:34:01;;;;;;;3.65;1.52;;;33.20;29.30;;;;;;6222865;28;20411;-75
2021/05/09 14:37:03;;;;;;;1.83;1.10;;;33.10;28.10;;;;;;6223634;28;20128;-78
2021/05/09 14:40:06;;;;;;;0.93;0.90;;;32.90;28.50;;;;;;6224711;28;20049;-78
2021/05/09 14:43:07;;;;;;;3.67;1.58;;;32.90;28.70;;;;;;6224893;28;20105;-77
2021/05/09 14:46:08;;;;;;;4.55;0.70;;;33.00;28.10;;;;;;6224872;28;20136;-79
2021/05/09 14:49:10;;;;;;;3.72;0.95;;;33.00;28.00;;;;;;6226248;28;20073;-78
2021/05/09 14:52:12;;;;;;;5.05;0.80;;;32.90;27.80;;;;;;6229516;28;20129;-77
2021/05/09 14:55:14;;;;;;;2.72;1.30;;;32.80;28.40;;;;;;6230823;28;20053;-77
2021/05/09 14:58:15;;;;;;;2.30;0.90;;;33.00;28.50;;;;;;6229854;28;20056;-76
2021/05/09 15:01:17;;;;;;;1.35;0.85;;;33.10;28.60;;;;;;6229681;28;20140;-77
2021/05/09 15:04:18;;;;;;;1.25;1.00;;;33.10;28.70;;;;;;6229758;28;20499;-78
2021/05/09 15:07:20;;;;;;;2.88;0.88;;;33.10;29.20;;;;;;6230900;28;20045;-77
2021/05/09 15:10:22;;;;;;;1.40;0.90;;;33.10;28.70;;;;;;6229997;28;20049;-78
2021/05/09 15:13:23;;;;;;;4.43;0.90;;;33.10;28.90;;;;;;6221259;28;20121;-77
2021/05/09 15:16:24;;;;;;;1.20;0.60;;;33.10;28.90;;;;;;6204860;28;20057;-76
2021/05/09 15:19:26;;;;;;;1.33;1.00;;;33.00;28.80;;;;;;6204360;28;20085;-77
2021/05/09 15:22:28;;;;;;;0.98;0.63;;;33.00;29.50;;;;;;6204756;28;20074;-78
2021/05/09 15:25:29;;;;;;;1.00;0.63;;;32.90;28.70;;;;;;6205267;28;20070;-76
2021/05/09 15:28:31;;;;;;;1.45;1.00;;;32.90;28.00;;;;;;6205385;28;20050;-77
2021/05/09 15:31:32;;;;;;;1.30;0.88;;;33.00;28.30;;;;;;6212106;28;20078;-77
2021/05/09 15:34:35;;;;;;;0.65;0.52;;;33.20;28.20;;;;;;6229961;28;20521;-78
2021/05/09 15:37:38;;;;;;;2.15;0.75;;;33.10;28.30;;;;;;6226334;28;20076;-75
2021/05/09 15:40:39;;;;;;;3.75;1.20;;;33.00;27.40;;;;;;6225183;28;20125;-76
2021/05/09 15:43:42;;;;;;;1.27;1.15;;;32.80;28.00;;;;;;6225648;28;20152;-75
2021/05/09 15:46:43;;;;;;;0.93;0.93;;;32.60;27.90;;;;;;6225636;28;20054;-76
2021/05/09 15:49:45;;;;;;;5.57;1.42;;;32.40;28.00;;;;;;6224921;28;20073;-75
2021/05/09 15:52:47;;;;;;;1.30;1.00;;;32.30;27.90;;;;;;6225343;28;20070;-76